Time;durP1;ratioP1;P1;durP2;ratioP2;P2;SDS_P1;SDS_P2;PMS_P1;PMS_P2;Temp;Humidity;BMP_temperature;BMP_pressure;BME280_temperature;BME280_humidity;BME280_pressure;Samples;Min_cycle;Max_cycle;Signal;HPM_P1;HPM_P2
2023/03/14 00:01:48;;;;;;;10.05;2.45;;;12.30;99.90;;;;;;5068340;28;20485;-83
2023/03/14 00:04:14;;;;;;;6.65;2.05;;;12.30;99.90;;;;;;5068846;28;20036;-83
2023/03/14 00:06:39;;;;;;;7.40;1.85;;;12.40;99.90;;;;;;5064810;28;20070;-86
2023/03/14 00:09:21;;;;;;;7.35;2.20;;;12.30;99.90;;;;;;5057378;28;20051;-87
2023/03/14 00:11:53;;;;;;;9.15;2.22;;;12.30;99.90;;;;;;5057038;28;20020;-85
2023/03/14 00:14:19;;;;;;;8.07;2.50;;;12.30;99.90;;;;;;5079066;28;20077;-85
2023/03/14 00:16:48;;;;;;;7.85;2.30;;;12.30;99.90;;;;;;5060740;28;20048;-85
2023/03/14 00:19:14;;;;;;;5.10;2.00;;;12.20;99.90;;;;;;5064695;28;20040;-86
2023/03/14 00:21:39;;;;;;;6.47;2.17;;;12.00;99.90;;;;;;5065647;28;20033;-85
2023/03/14 00:24:05;;;;;;;7.38;2.17;;;11.80;99.90;;;;;;5064332;28;20412;-84
2023/03/14 00:26:31;;;;;;;5.55;2.08;;;11.60;99.90;;;;;;5080357;28;20029;-87
2023/03/14 00:28:56;;;;;;;7.60;2.58;;;11.40;99.90;;;;;;5063066;28;20052;-86
2023/03/14 00:31:22;;;;;;;9.45;1.80;;;11.10;99.90;;;;;;5058143;28;20025;-86
2023/03/14 00:33:54;;;;;;;4.60;1.52;;;11.00;99.90;;;;;;5061013;28;20024;-84
2023/03/14 00:36:21;;;;;;;4.50;1.50;;;10.90;99.90;;;;;;5061971;28;20551;-86
2023/03/14 00:38:57;;;;;;;6.03;1.20;;;10.80;99.90;;;;;;5058315;28;20029;-85
2023/03/14 00:41:24;;;;;;;2.92;0.80;;;10.70;99.90;;;;;;5078443;28;20020;-86
2023/03/14 00:43:51;;;;;;;4.75;1.42;;;10.60;99.90;;;;;;5061592;28;20080;-88
2023/03/14 00:46:19;;;;;;;6.45;1.55;;;10.60;99.90;;;;;;5057178;28;20029;-86
2023/03/14 00:48:46;;;;;;;4.40;1.02;;;10.70;99.90;;;;;;5066022;28;20040;-87
2023/03/14 00:51:14;;;;;;;5.82;1.30;;;10.70;99.90;;;;;;5068312;28;20043;-85
2023/03/14 00:53:41;;;;;;;4.40;1.30;;;10.70;99.90;;;;;;5085845;28;20021;-85
2023/03/14 00:56:10;;;;;;;4.60;1.20;;;10.70;99.90;;;;;;5063192;28;20123;-85
2023/03/14 00:58:35;;;;;;;5.40;1.58;;;10.70;99.90;;;;;;5070617;28;20075;-85
2023/03/14 01:01:27;;;;;;;4.60;1.23;;;10.80;99.90;;;;;;5069230;28;20522;-85
2023/03/14 01:03:55;;;;;;;4.78;1.30;;;10.80;99.90;;;;;;5067647;28;20139;-84
2023/03/14 01:06:28;;;;;;;6.55;1.27;;;10.80;99.90;;;;;;5073597;28;20078;-84
2023/03/14 01:08:55;;;;;;;6.72;1.33;;;10.80;99.90;;;;;;5074270;28;20359;-85
2023/03/14 01:11:26;;;;;;;3.63;1.10;;;10.80;99.90;;;;;;5070135;28;20024;-86
2023/03/14 01:13:53;;;;;;;4.53;1.20;;;10.80;99.90;;;;;;5070394;28;20561;-87
2023/03/14 01:16:19;;;;;;;4.35;1.50;;;10.80;99.90;;;;;;5066646;28;20123;-86
2023/03/14 01:18:46;;;;;;;5.85;1.90;;;10.80;99.90;;;;;;5064883;28;20077;-86
2023/03/14 01:21:24;;;;;;;6.38;1.58;;;10.80;99.90;;;;;;5064639;28;20054;-85
2023/03/14 01:23:51;;;;;;;5.75;1.30;;;10.90;99.90;;;;;;5065389;28;20035;-86
2023/03/14 01:26:19;;;;;;;6.45;1.45;;;10.90;99.90;;;;;;5067683;28;20060;-86
2023/03/14 01:28:45;;;;;;;6.68;1.50;;;10.80;99.90;;;;;;5063308;28;20090;-85
2023/03/14 01:31:11;;;;;;;8.02;1.38;;;10.80;99.90;;;;;;5068330;28;20040;-85
2023/03/14 01:33:38;;;;;;;7.80;1.90;;;10.80;99.90;;;;;;5067789;28;20025;-85
2023/03/14 01:36:04;;;;;;;5.82;1.35;;;10.80;99.90;;;;;;5064215;28;20101;-86
2023/03/14 01:38:35;;;;;;;6.85;1.85;;;10.80;99.90;;;;;;5066662;28;20429;-85
2023/03/14 01:41:01;;;;;;;5.07;1.45;;;10.90;99.90;;;;;;5082532;28;20103;-86
2023/03/14 01:43:26;;;;;;;7.63;1.27;;;10.80;99.90;;;;;;5065997;28;20407;-86
2023/03/14 01:46:04;;;;;;;7.93;1.63;;;10.70;99.90;;;;;;5068990;28;20028;-86
2023/03/14 01:48:47;;;;;;;8.07;1.50;;;10.60;99.90;;;;;;5081375;28;20614;-85
2023/03/14 01:51:32;;;;;;;6.78;1.90;;;10.50;99.90;;;;;;5062511;28;20021;-86
2023/03/14 01:54:21;;;;;;;4.18;1.35;;;10.40;99.90;;;;;;5064806;28;20036;-86
2023/03/14 01:56:57;;;;;;;4.90;1.30;;;10.40;99.90;;;;;;5065820;28;20028;-85
2023/03/14 01:59:23;;;;;;;4.50;1.20;;;10.30;99.90;;;;;;5064095;28;20229;-85
2023/03/14 02:01:50;;;;;;;6.28;1.30;;;10.20;99.90;;;;;;5065201;28;20025;-85
2023/03/14 02:04:17;;;;;;;5.03;1.40;;;10.00;99.90;;;;;;5065124;28;20131;-85
2023/03/14 02:07:05;;;;;;;7.82;1.50;;;9.90;99.90;;;;;;5065497;28;20021;-84
2023/03/14 02:09:31;;;;;;;5.82;1.77;;;9.80;99.90;;;;;;5065690;28;20042;-84
2023/03/14 02:11:57;;;;;;;4.72;1.52;;;9.80;99.90;;;;;;5060616;28;20033;-84
2023/03/14 02:14:31;;;;;;;7.28;1.95;;;9.70;99.90;;;;;;5058477;28;20042;-83
2023/03/14 02:16:57;;;;;;;6.75;1.85;;;9.70;99.90;;;;;;5061397;28;20033;-85
2023/03/14 02:19:50;;;;;;;5.22;1.70;;;9.60;99.90;;;;;;5064839;28;20047;-86
2023/03/14 02:22:17;;;;;;;6.72;1.35;;;9.60;99.90;;;;;;5065467;28;20032;-85
2023/03/14 02:25:10;;;;;;;9.23;1.90;;;9.50;99.90;;;;;;5063865;28;20158;-87
2023/03/14 02:27:36;;;;;;;9.55;2.05;;;9.50;99.90;;;;;;5060704;28;20541;-84
2023/03/14 02:30:04;;;;;;;6.43;1.80;;;9.40;99.90;;;;;;5064053;28;20035;-85
2023/03/14 02:32:33;;;;;;;7.78;1.55;;;9.30;99.90;;;;;;5061812;28;20111;-86
2023/03/14 02:35:05;;;;;;;7.65;1.88;;;9.30;99.90;;;;;;5064166;28;20065;-85
2023/03/14 02:37:40;;;;;;;7.28;1.45;;;9.20;99.90;;;;;;5059734;28;20032;-87
2023/03/14 02:40:07;;;;;;;6.47;1.45;;;9.20;99.90;;;;;;5080495;28;20037;-85
2023/03/14 02:42:39;;;;;;;8.90;1.92;;;9.20;99.90;;;;;;5061086;28;20026;-85
2023/03/14 02:45:07;;;;;;;5.07;1.08;;;9.20;99.90;;;;;;5059814;28;20028;-87
2023/03/14 02:47:33;;;;;;;5.57;1.25;;;9.20;99.90;;;;;;5066363;28;20090;-86
2023/03/14 02:50:07;;;;;;;5.28;1.20;;;9.30;99.90;;;;;;5063864;28;20028;-85
2023/03/14 02:52:33;;;;;;;6.18;1.23;;;9.20;99.90;;;;;;5065279;28;20232;-85
2023/03/14 02:54:59;;;;;;;7.32;1.35;;;9.20;99.90;;;;;;5065052;28;20044;-86
2023/03/14 02:57:24;;;;;;;7.85;1.23;;;9.20;99.90;;;;;;5063555;28;20052;-85
2023/03/14 02:59:50;;;;;;;7.03;1.58;;;9.20;99.90;;;;;;5065130;28;20032;-87
2023/03/14 03:02:16;;;;;;;6.07;1.23;;;9.20;99.90;;;;;;5060464;28;20024;-86
2023/03/14 03:04:41;;;;;;;5.80;1.55;;;9.20;99.90;;;;;;5053109;28;20058;-87
2023/03/14 03:07:07;;;;;;;7.75;1.23;;;9.20;99.90;;;;;;5062217;28;20480;-86
2023/03/14 03:09:33;;;;;;;5.53;1.55;;;9.20;99.90;;;;;;5055113;28;20553;-85
2023/03/14 03:11:58;;;;;;;6.65;1.38;;;9.20;99.90;;;;;;5053334;28;20442;-86
2023/03/14 03:14:24;;;;;;;6.53;1.30;;;9.30;99.90;;;;;;5061076;28;20365;-87
2023/03/14 03:16:50;;;;;;;5.47;1.25;;;9.30;99.90;;;;;;5056684;28;20078;-86
2023/03/14 03:19:17;;;;;;;6.68;1.67;;;9.20;99.90;;;;;;5060100;28;20101;-86
2023/03/14 03:21:43;;;;;;;3.88;1.20;;;9.20;99.90;;;;;;5060616;28;20029;-86
2023/03/14 03:24:09;;;;;;;5.90;1.60;;;9.20;99.90;;;;;;5076980;28;20454;-88
2023/03/14 03:26:35;;;;;;;6.93;1.80;;;9.20;99.90;;;;;;5056438;28;20089;-87
2023/03/14 03:29:01;;;;;;;8.50;1.50;;;9.20;99.90;;;;;;5057008;28;20065;-87
2023/03/14 03:31:27;;;;;;;9.85;2.08;;;9.20;99.90;;;;;;5061323;28;20033;-86
2023/03/14 03:33:52;;;;;;;8.18;1.70;;;9.20;99.90;;;;;;5054749;28;20105;-87
2023/03/14 03:36:25;;;;;;;6.40;1.35;;;9.20;99.90;;;;;;5058501;28;20040;-85
2023/03/14 03:38:51;;;;;;;;;;;9.30;99.90;;;;;;5060598;28;20021;-87
2023/03/14 03:41:17;;;;;;;7.32;1.75;;;9.30;99.90;;;;;;5058862;28;19919;-85
2023/03/14 03:43:42;;;;;;;5.18;1.50;;;9.30;99.90;;;;;;5062634;28;20028;-85
2023/03/14 03:46:09;;;;;;;7.65;2.00;;;9.30;99.90;;;;;;5055272;28;20484;-85
2023/03/14 03:48:35;;;;;;;5.00;1.40;;;9.30;99.90;;;;;;5055529;28;20074;-85
2023/03/14 03:51:01;;;;;;;6.28;1.88;;;9.30;99.90;;;;;;5061720;28;20416;-85
2023/03/14 03:53:27;;;;;;;9.77;2.17;;;9.40;99.90;;;;;;5062512;28;20086;-86
2023/03/14 03:55:52;;;;;;;9.35;2.33;;;9.40;99.90;;;;;;5062796;28;20036;-87
2023/03/14 03:58:18;;;;;;;10.15;2.70;;;9.40;99.90;;;;;;5061233;28;20095;-86
2023/03/14 04:00:44;;;;;;;10.40;2.83;;;9.50;99.90;;;;;;5055751;28;20478;-86
2023/03/14 04:03:09;;;;;;;11.98;2.03;;;9.50;99.90;;;;;;5062172;28;20041;-86
2023/03/14 04:05:35;;;;;;;13.70;2.90;;;9.50;99.90;;;;;;5063181;28;20029;-87
2023/03/14 04:08:01;;;;;;;10.60;2.78;;;9.50;99.90;;;;;;5063302;28;20038;-85
2023/03/14 04:10:26;;;;;;;9.05;3.13;;;9.60;99.90;;;;;;5063009;28;20029;-84
2023/03/14 04:12:52;;;;;;;11.40;2.40;;;9.60;99.90;;;;;;5056349;28;20024;-85
2023/03/14 04:15:18;;;;;;;10.73;2.25;;;9.50;99.90;;;;;;5063610;28;20040;-85
2023/03/14 04:17:44;;;;;;;13.18;2.45;;;9.50;99.90;;;;;;5065626;28;20090;-84
2023/03/14 04:20:13;;;;;;;10.43;2.72;;;9.50;99.90;;;;;;5045531;28;20025;-85
2023/03/14 04:22:39;;;;;;;7.10;1.65;;;9.50;99.90;;;;;;5064424;28;20021;-84
2023/03/14 04:25:06;;;;;;;11.13;1.95;;;9.50;99.90;;;;;;5065683;28;20025;-88
2023/03/14 04:27:31;;;;;;;9.38;1.80;;;9.60;99.90;;;;;;5066317;28;20129;-85
2023/03/14 04:29:57;;;;;;;5.32;1.98;;;9.60;99.90;;;;;;5061709;28;20165;-86
2023/03/14 04:32:22;;;;;;;9.68;1.80;;;9.60;99.90;;;;;;5064852;28;20036;-86
2023/03/14 04:34:48;;;;;;;7.47;2.22;;;9.60;99.90;;;;;;5068159;28;20532;-86
2023/03/14 04:37:14;;;;;;;6.47;1.80;;;9.70;99.90;;;;;;5066372;28;20056;-85
2023/03/14 04:39:39;;;;;;;6.30;1.20;;;9.70;99.90;;;;;;5067337;28;20416;-84
2023/03/14 04:42:05;;;;;;;7.93;1.85;;;9.60;99.90;;;;;;5067788;28;20035;-87
2023/03/14 04:44:31;;;;;;;8.68;1.75;;;9.60;99.90;;;;;;5070622;28;20437;-85
2023/03/14 04:46:57;;;;;;;7.90;1.58;;;9.60;99.90;;;;;;5068390;28;20040;-86
2023/03/14 04:49:22;;;;;;;7.25;1.55;;;9.60;99.90;;;;;;5062917;28;20094;-86
2023/03/14 04:51:50;;;;;;;4.68;1.30;;;9.70;99.90;;;;;;5068351;28;20592;-84
2023/03/14 04:54:16;;;;;;;7.85;1.55;;;9.70;99.90;;;;;;5065173;28;20048;-85
2023/03/14 04:56:41;;;;;;;7.72;1.13;;;9.70;99.90;;;;;;5067475;28;20060;-84
2023/03/14 04:59:08;;;;;;;5.07;1.38;;;9.70;99.90;;;;;;5069582;28;20032;-85
2023/03/14 05:01:33;;;;;;;6.13;1.48;;;9.70;99.90;;;;;;5070321;28;20040;-85
2023/03/14 05:03:59;;;;;;;8.23;1.58;;;9.70;99.90;;;;;;5069194;28;20045;-85
2023/03/14 05:06:25;;;;;;;6.82;1.42;;;9.70;99.90;;;;;;5068479;28;20032;-85
2023/03/14 05:08:50;;;;;;;4.00;1.23;;;9.70;99.90;;;;;;5068595;28;20135;-85
2023/03/14 05:11:16;;;;;;;7.70;1.40;;;9.70;99.90;;;;;;5067814;28;20509;-87
2023/03/14 05:13:42;;;;;;;4.97;1.20;;;9.70;99.90;;;;;;5071646;28;20056;-85
2023/03/14 05:16:10;;;;;;;11.95;1.50;;;9.70;99.90;;;;;;5066973;28;20036;-86
2023/03/14 05:18:35;;;;;;;5.53;1.58;;;9.70;99.90;;;;;;5060163;28;20128;-87
2023/03/14 05:21:02;;;;;;;8.40;1.33;;;9.70;99.90;;;;;;5065348;28;20119;-86
2023/03/14 05:23:27;;;;;;;5.45;1.38;;;9.70;99.90;;;;;;5064724;28;20208;-87
2023/03/14 05:25:53;;;;;;;6.22;1.65;;;9.70;99.90;;;;;;5066092;28;20099;-86
2023/03/14 05:28:19;;;;;;;4.40;1.13;;;9.70;99.90;;;;;;5064500;28;20040;-84
2023/03/14 05:30:45;;;;;;;3.88;0.85;;;9.70;99.90;;;;;;5064382;28;20051;-85
2023/03/14 05:33:10;;;;;;;4.85;0.98;;;9.70;99.90;;;;;;5067778;28;20020;-85
2023/03/14 05:35:36;;;;;;;6.43;1.42;;;9.60;99.90;;;;;;5062947;28;20047;-86
2023/03/14 05:38:01;;;;;;;3.28;0.80;;;9.70;99.90;;;;;;5061288;28;20518;-85
2023/03/14 05:40:27;;;;;;;2.95;0.90;;;9.70;99.90;;;;;;5063447;28;20104;-84
2023/03/14 05:42:55;;;;;;;6.75;1.00;;;9.60;99.90;;;;;;5060640;28;20152;-85
2023/03/14 05:45:21;;;;;;;7.63;1.17;;;9.70;99.90;;;;;;5061240;28;20386;-85
2023/03/14 05:47:46;;;;;;;4.68;1.25;;;9.70;99.90;;;;;;5065610;28;20110;-85
2023/03/14 05:50:12;;;;;;;4.40;0.82;;;9.60;99.90;;;;;;5063866;28;20056;-85
2023/03/14 05:52:38;;;;;;;7.28;1.40;;;9.60;99.90;;;;;;5064103;28;20025;-87
2023/03/14 05:55:04;;;;;;;5.82;1.20;;;9.50;99.90;;;;;;5064668;28;20037;-85
2023/03/14 05:57:30;;;;;;;3.60;0.88;;;9.50;99.90;;;;;;5063907;28;20048;-85
2023/03/14 05:59:55;;;;;;;5.18;1.17;;;9.50;99.90;;;;;;5062865;28;20450;-85
2023/03/14 06:02:21;;;;;;;4.13;1.00;;;9.40;99.90;;;;;;5063111;28;20130;-86
2023/03/14 06:04:46;;;;;;;3.45;1.00;;;9.50;99.90;;;;;;5057336;28;20033;-84
2023/03/14 06:07:12;;;;;;;4.95;1.27;;;9.50;99.90;;;;;;5064329;28;20036;-86
2023/03/14 06:09:39;;;;;;;3.97;1.42;;;9.40;99.90;;;;;;5064029;28;20105;-87
2023/03/14 06:12:05;;;;;;;5.15;1.13;;;9.40;99.90;;;;;;5062972;28;20024;-87
2023/03/14 06:14:31;;;;;;;5.97;1.30;;;9.40;99.90;;;;;;5065396;28;20107;-86
2023/03/14 06:16:58;;;;;;;5.10;1.38;;;9.40;99.90;;;;;;5063647;28;20139;-86
2023/03/14 06:19:24;;;;;;;5.68;1.85;;;9.40;99.90;;;;;;5080186;28;20027;-85
2023/03/14 06:21:50;;;;;;;5.05;1.60;;;9.30;99.90;;;;;;5058932;28;20264;-85
2023/03/14 06:24:16;;;;;;;5.45;2.33;;;9.30;99.90;;;;;;5063198;28;20431;-84
2023/03/14 06:26:41;;;;;;;4.93;2.00;;;9.30;99.90;;;;;;5064826;28;20386;-85
2023/03/14 06:29:07;;;;;;;3.92;2.08;;;9.30;99.90;;;;;;5063825;28;20039;-85
2023/03/14 06:31:33;;;;;;;5.40;2.10;;;9.30;99.90;;;;;;5064079;28;20032;-84
2023/03/14 06:33:58;;;;;;;5.28;1.92;;;9.30;99.90;;;;;;5063697;28;20024;-85
2023/03/14 06:36:24;;;;;;;6.13;2.03;;;9.30;99.90;;;;;;5055705;28;21035;-84
2023/03/14 06:38:50;;;;;;;4.13;2.08;;;9.20;99.90;;;;;;5064747;28;20028;-85
2023/03/14 06:41:16;;;;;;;5.25;2.25;;;9.30;99.90;;;;;;5064539;28;20035;-88
2023/03/14 06:43:41;;;;;;;6.97;2.47;;;9.30;99.90;;;;;;5064422;28;20394;-85
2023/03/14 06:46:07;;;;;;;6.53;2.30;;;9.30;99.90;;;;;;5064521;28;20077;-84
2023/03/14 06:48:33;;;;;;;6.47;2.22;;;9.30;99.90;;;;;;5063775;28;20074;-87
2023/03/14 06:50:58;;;;;;;4.53;2.38;;;9.30;99.90;;;;;;5064504;28;20429;-87
2023/03/14 06:53:24;;;;;;;5.72;2.78;;;9.30;99.90;;;;;;5079390;28;21114;-87
2023/03/14 06:55:50;;;;;;;6.90;2.92;;;9.30;99.90;;;;;;5064528;28;20040;-86
2023/03/14 06:58:15;;;;;;;5.40;2.30;;;9.30;99.90;;;;;;5057419;28;20027;-84
2023/03/14 07:00:41;;;;;;;4.10;2.20;;;9.30;99.90;;;;;;5058638;28;20028;-86
2023/03/14 07:03:08;;;;;;;6.55;3.42;;;9.40;99.90;;;;;;5058051;28;20041;-87
2023/03/14 07:05:34;;;;;;;7.38;3.10;;;9.40;99.90;;;;;;5057603;28;20029;-85
2023/03/14 07:08:02;;;;;;;7.35;3.35;;;9.40;99.90;;;;;;5061985;28;20466;-86
2023/03/14 07:10:28;;;;;;;8.25;3.90;;;9.50;99.90;;;;;;5063749;28;20729;-85
2023/03/14 07:12:54;;;;;;;6.10;3.70;;;9.50;99.90;;;;;;5058341;28;20544;-85
2023/03/14 07:15:19;;;;;;;9.07;3.60;;;9.50;99.90;;;;;;5063905;28;20051;-86
2023/03/14 07:17:47;;;;;;;8.02;3.63;;;9.60;99.90;;;;;;5055943;28;20031;-86
2023/03/14 07:20:13;;;;;;;8.45;4.20;;;9.60;99.90;;;;;;5063890;28;20478;-86
2023/03/14 07:22:39;;;;;;;7.25;3.92;;;9.50;99.90;;;;;;5070337;28;20029;-84
2023/03/14 07:25:05;;;;;;;8.52;3.97;;;9.50;99.90;;;;;;5055999;28;20009;-84
2023/03/14 07:27:30;;;;;;;6.20;3.22;;;9.50;99.90;;;;;;5063700;28;20032;-87
2023/03/14 07:29:56;;;;;;;6.88;3.15;;;9.40;99.90;;;;;;5057764;28;20028;-85
2023/03/14 07:32:21;;;;;;;7.20;2.85;;;9.20;99.90;;;;;;5064015;28;20107;-87
2023/03/14 07:34:47;;;;;;;5.50;2.90;;;9.10;99.90;;;;;;5064306;28;20035;-87
2023/03/14 07:37:13;;;;;;;5.85;2.60;;;9.00;99.90;;;;;;5056308;28;20033;-85
2023/03/14 07:39:38;;;;;;;4.22;1.88;;;8.90;99.90;;;;;;5063814;28;20059;-87
2023/03/14 07:42:04;;;;;;;4.28;1.70;;;8.80;99.90;;;;;;5064088;28;20016;-86
2023/03/14 07:44:30;;;;;;;2.80;1.40;;;8.70;99.90;;;;;;5062610;28;20484;-86
2023/03/14 07:46:55;;;;;;;4.93;1.20;;;8.60;99.90;;;;;;5054980;28;20112;-87
2023/03/14 07:49:21;;;;;;;3.17;1.20;;;8.50;99.90;;;;;;5063387;28;20111;-87
2023/03/14 07:51:50;;;;;;;2.13;1.20;;;8.40;99.90;;;;;;5079521;28;20093;-86
2023/03/14 07:54:16;;;;;;;2.55;1.40;;;8.30;99.90;;;;;;5061547;28;20028;-84
2023/03/14 07:56:41;;;;;;;4.78;1.95;;;8.30;99.90;;;;;;5063630;28;20028;-85
2023/03/14 07:59:07;;;;;;;3.67;1.40;;;8.30;99.90;;;;;;5062250;28;20032;-85
2023/03/14 08:01:33;;;;;;;3.70;1.00;;;8.20;99.90;;;;;;5068517;28;20553;-85
2023/03/14 08:03:59;;;;;;;2.63;0.88;;;8.20;99.90;;;;;;5056634;28;20497;-85
2023/03/14 08:06:24;;;;;;;2.78;0.80;;;8.10;99.90;;;;;;5054466;28;20024;-85
2023/03/14 08:08:50;;;;;;;1.60;0.90;;;8.10;99.90;;;;;;5061338;28;20028;-84
2023/03/14 08:11:15;;;;;;;1.85;0.90;;;8.00;99.90;;;;;;5063119;28;20496;-86
2023/03/14 08:13:41;;;;;;;2.63;1.10;;;8.00;99.90;;;;;;5062802;28;20032;-87
2023/03/14 08:16:07;;;;;;;1.63;0.80;;;7.90;99.90;;;;;;5059913;28;20047;-86
2023/03/14 08:18:32;;;;;;;3.08;0.90;;;7.90;99.90;;;;;;5061674;28;20405;-86
2023/03/14 08:20:58;;;;;;;3.75;1.00;;;7.80;99.90;;;;;;5056694;28;20025;-85
2023/03/14 08:23:24;;;;;;;1.70;0.77;;;7.80;99.90;;;;;;5060658;28;20604;-85
2023/03/14 08:25:50;;;;;;;1.20;0.85;;;7.80;99.90;;;;;;5062949;28;20104;-85
2023/03/14 08:28:17;;;;;;;2.05;0.65;;;7.80;99.90;;;;;;5061241;28;20631;-85
2023/03/14 08:30:42;;;;;;;1.63;0.70;;;7.80;99.90;;;;;;5060966;28;20182;-86
2023/03/14 08:33:11;;;;;;;2.25;1.08;;;7.80;99.90;;;;;;5078589;28;20119;-86
2023/03/14 08:35:38;;;;;;;1.80;0.70;;;7.90;99.90;;;;;;5062647;28;20068;-86
2023/03/14 08:38:03;;;;;;;1.70;0.70;;;7.90;99.90;;;;;;5057742;28;20374;-87
2023/03/14 08:40:32;;;;;;;2.65;0.80;;;7.90;99.90;;;;;;5060916;28;20321;-88
2023/03/14 08:42:57;;;;;;;2.45;0.70;;;7.90;99.90;;;;;;5059113;28;20056;-86
2023/03/14 08:45:24;;;;;;;3.63;0.95;;;7.90;99.90;;;;;;5059102;28;20025;-85
2023/03/14 08:47:50;;;;;;;4.28;0.70;;;7.80;99.90;;;;;;5058626;28;20029;-85
2023/03/14 08:50:16;;;;;;;2.53;0.88;;;7.60;99.90;;;;;;5059256;28;20413;-85
2023/03/14 08:52:41;;;;;;;7.97;0.98;;;7.40;99.90;;;;;;5054300;28;20035;-86
2023/03/14 08:55:08;;;;;;;4.82;0.70;;;7.30;99.90;;;;;;5059334;28;20111;-85
2023/03/14 08:57:34;;;;;;;4.07;0.98;;;7.30;99.90;;;;;;5074111;28;20036;-87
2023/03/14 09:00:00;;;;;;;5.43;1.00;;;7.30;99.90;;;;;;5058812;28;20381;-86
2023/03/14 09:02:26;;;;;;;5.40;1.20;;;7.30;99.90;;;;;;5058427;28;20040;-87
2023/03/14 09:04:53;;;;;;;5.95;1.13;;;7.30;99.90;;;;;;5060252;28;20806;-85
2023/03/14 09:07:19;;;;;;;6.43;0.88;;;7.30;99.90;;;;;;5059990;28;20036;-85
2023/03/14 09:09:45;;;;;;;6.60;1.25;;;7.20;99.90;;;;;;5057695;28;20024;-86
2023/03/14 09:12:11;;;;;;;7.25;1.17;;;7.20;99.90;;;;;;5056514;28;20025;-85
2023/03/14 09:14:37;;;;;;;7.32;1.30;;;7.30;99.90;;;;;;5056573;28;20025;-86
2023/03/14 09:17:03;;;;;;;7.90;0.98;;;7.40;99.90;;;;;;5063673;28;20047;-86
2023/03/14 09:19:31;;;;;;;7.32;0.82;;;7.40;99.90;;;;;;5060570;28;20029;-87
2023/03/14 09:21:56;;;;;;;7.07;0.73;;;7.30;99.90;;;;;;5063592;28;20037;-85
2023/03/14 09:24:22;;;;;;;3.08;0.57;;;7.10;99.90;;;;;;5063880;28;20807;-86
2023/03/14 09:26:48;;;;;;;3.17;0.60;;;7.10;99.90;;;;;;5063901;28;20059;-87
2023/03/14 09:29:13;;;;;;;6.82;0.82;;;7.10;99.90;;;;;;5054824;28;20475;-85
2023/03/14 09:31:39;;;;;;;3.30;0.63;;;7.00;99.90;;;;;;5061889;28;20154;-87
2023/03/14 09:34:04;;;;;;;1.80;0.40;;;7.00;99.90;;;;;;5062225;28;22001;-86
2023/03/14 09:36:30;;;;;;;5.93;0.55;;;7.10;99.90;;;;;;5062510;28;20044;-87
2023/03/14 09:38:56;;;;;;;3.78;0.50;;;7.30;99.90;;;;;;5061562;28;20446;-86
2023/03/14 09:41:32;;;;;;;1.92;0.40;;;7.40;99.90;;;;;;5061014;28;20039;-86
2023/03/14 09:44:04;;;;;;;6.45;0.60;;;7.60;99.90;;;;;;5057755;28;20043;-86
2023/03/14 09:46:32;;;;;;;5.22;0.50;;;7.70;99.90;;;;;;5057604;28;20036;-87
2023/03/14 09:48:58;;;;;;;3.92;0.50;;;7.80;99.90;;;;;;5064319;28;20437;-88
2023/03/14 09:51:24;;;;;;;5.97;0.77;;;7.80;99.90;;;;;;5062569;28;20032;-85
2023/03/14 09:53:51;;;;;;;3.88;0.52;;;7.70;99.90;;;;;;5061234;28;20047;-86
2023/03/14 09:56:21;;;;;;;3.72;0.95;;;7.70;99.90;;;;;;5060500;28;20159;-86
2023/03/14 09:58:58;;;;;;;4.60;0.77;;;7.70;99.90;;;;;;5060828;28;20090;-85
2023/03/14 10:01:32;;;;;;;2.80;0.40;;;7.70;99.90;;;;;;5079559;28;20043;-86
2023/03/14 10:04:06;;;;;;;4.32;0.73;;;7.70;99.90;;;;;;5056805;28;20041;-84
2023/03/14 10:06:34;;;;;;;4.10;0.65;;;7.60;99.90;;;;;;5057782;28;20044;-86
2023/03/14 10:09:02;;;;;;;4.45;0.65;;;7.40;99.90;;;;;;5061365;28;20075;-86
2023/03/14 10:11:27;;;;;;;6.78;0.80;;;7.30;99.90;;;;;;5055989;28;20082;-86
2023/03/14 10:14:16;;;;;;;5.53;0.80;;;7.30;99.90;;;;;;5056376;28;20020;-86
2023/03/14 10:16:45;;;;;;;6.15;1.35;;;7.40;99.90;;;;;;5060173;28;20113;-85
2023/03/14 10:19:15;;;;;;;7.88;0.95;;;7.40;99.90;;;;;;5076680;28;20032;-85
2023/03/14 10:21:52;;;;;;;8.80;0.98;;;7.40;99.90;;;;;;5055025;28;20032;-85
2023/03/14 10:24:32;;;;;;;8.93;1.25;;;7.50;99.90;;;;;;5056382;28;20392;-85
2023/03/14 10:27:02;;;;;;;8.93;1.17;;;7.50;99.90;;;;;;5061019;28;20401;-86
2023/03/14 10:29:28;;;;;;;11.70;1.73;;;7.60;99.90;;;;;;5062810;28;20033;-86
2023/03/14 10:31:58;;;;;;;12.38;1.95;;;7.60;99.90;;;;;;5056339;28;20020;-85
2023/03/14 10:34:33;;;;;;;12.70;1.85;;;7.60;99.90;;;;;;5061529;28;20032;-83
2023/03/14 10:37:23;;;;;;;11.93;1.58;;;7.70;99.90;;;;;;5078193;28;20048;-86
2023/03/14 10:39:55;;;;;;;11.48;2.03;;;7.90;99.90;;;;;;5077883;28;20031;-83
2023/03/14 10:42:29;;;;;;;16.38;1.63;;;7.80;99.90;;;;;;5053895;28;20025;-86
2023/03/14 10:45:02;;;;;;;13.52;2.97;;;7.90;99.90;;;;;;5078379;28;20033;-84
2023/03/14 10:47:28;;;;;;;12.18;2.58;;;8.00;99.90;;;;;;5061579;28;20058;-85
2023/03/14 10:49:55;;;;;;;18.60;2.38;;;8.10;99.90;;;;;;5056038;28;20028;-86
2023/03/14 10:52:26;;;;;;;19.08;2.58;;;8.40;99.90;;;;;;5061967;28;20032;-84
2023/03/14 10:55:08;;;;;;;10.75;2.38;;;8.50;99.90;;;;;;5059709;28;20158;-83
2023/03/14 10:57:39;;;;;;;8.55;2.30;;;8.50;99.90;;;;;;5060563;28;20082;-86
2023/03/14 11:00:14;;;;;;;8.88;1.85;;;8.70;99.90;;;;;;5060362;28;20428;-89
2023/03/14 11:02:58;;;;;;;12.73;2.13;;;8.70;99.90;;;;;;5061523;28;20470;-86
2023/03/14 11:05:41;;;;;;;10.95;2.25;;;8.30;99.90;;;;;;5059341;28;20504;-86
2023/03/14 11:08:19;;;;;;;11.00;1.85;;;7.90;99.90;;;;;;5055849;28;20025;-86
2023/03/14 11:10:50;;;;;;;12.60;2.10;;;7.70;99.90;;;;;;5078624;28;20043;-88
2023/03/14 11:13:55;;;;;;;19.00;3.70;;;7.60;99.90;;;;;;5055997;28;20055;-86
2023/03/14 11:16:37;;;;;;;11.60;2.55;;;7.90;99.90;;;;;;5060631;28;20549;-86
2023/03/14 11:19:37;;;;;;;14.80;2.25;;;8.10;99.90;;;;;;5053179;28;20028;-86
2023/03/14 11:22:20;;;;;;;13.90;3.00;;;8.10;99.90;;;;;;5030370;28;20032;-85
2023/03/14 11:25:10;;;;;;;9.75;2.10;;;8.40;99.90;;;;;;5061094;28;20626;-86
2023/03/14 11:28:01;;;;;;;13.80;2.20;;;9.10;99.90;;;;;;5060808;28;20079;-87
2023/03/14 11:30:45;;;;;;;16.90;3.05;;;9.50;99.90;;;;;;5055813;28;20031;-86
2023/03/14 11:33:29;;;;;;;13.25;2.05;;;9.30;99.90;;;;;;5054087;28;20092;-87
2023/03/14 11:36:07;;;;;;;13.98;3.20;;;9.00;99.90;;;;;;5054903;28;20080;-87
2023/03/14 11:38:40;;;;;;;14.23;3.38;;;8.90;99.90;;;;;;5055156;28;20035;-86
2023/03/14 11:41:15;;;;;;;12.40;2.50;;;9.00;99.90;;;;;;5060679;28;20360;-85
2023/03/14 11:43:45;;;;;;;18.27;2.65;;;9.00;99.90;;;;;;5059249;28;20050;-85
2023/03/14 11:46:23;;;;;;;16.48;2.95;;;9.00;99.90;;;;;;5053684;28;20031;-86
2023/03/14 11:49:25;;;;;;;17.02;2.65;;;9.40;99.90;;;;;;5056232;28;22039;-85
2023/03/14 11:51:55;;;;;;;20.27;3.50;;;10.10;99.90;;;;;;5055458;28;20412;-86
2023/03/14 11:54:53;;;;;;;11.70;2.97;;;10.40;99.90;;;;;;5054047;28;20542;-85
2023/03/14 11:57:20;;;;;;;14.38;2.83;;;10.50;99.90;;;;;;5054772;28;20123;-88
2023/03/14 11:59:49;;;;;;;18.85;2.90;;;11.20;99.90;;;;;;5061180;28;20493;-87
2023/03/14 12:02:30;;;;;;;10.68;2.47;;;12.20;99.90;;;;;;5059955;28;20028;-87
2023/03/14 12:05:21;;;;;;;12.60;2.25;;;13.20;99.90;;;;;;5060418;28;20028;-87
2023/03/14 12:08:02;;;;;;;14.32;2.13;;;13.90;99.90;;;;;;5060703;28;20024;-88
2023/03/14 12:10:28;;;;;;;13.43;2.38;;;14.40;99.90;;;;;;5060290;28;20038;-88
2023/03/14 12:12:53;;;;;;;12.70;2.60;;;13.90;99.90;;;;;;5060535;28;20029;-89
2023/03/14 12:15:24;;;;;;;11.05;1.98;;;12.80;99.90;;;;;;5059559;28;20481;-86
2023/03/14 12:17:54;;;;;;;10.40;2.40;;;12.60;99.90;;;;;;5053653;28;20086;-85
2023/03/14 12:20:25;;;;;;;9.20;2.55;;;13.10;99.90;;;;;;5056277;28;20052;-85
2023/03/14 12:22:58;;;;;;;9.43;2.20;;;13.60;99.90;;;;;;5078850;28;20029;-86
2023/03/14 12:25:26;;;;;;;9.07;2.03;;;13.80;99.90;;;;;;5063915;28;20075;-86
2023/03/14 12:27:55;;;;;;;9.70;2.05;;;14.30;99.90;;;;;;5056999;28;20064;-86
2023/03/14 12:30:29;;;;;;;8.82;2.22;;;14.30;99.90;;;;;;5060949;28;20040;-85
2023/03/14 12:33:18;;;;;;;7.97;1.85;;;14.40;99.90;;;;;;5063245;28;20054;-86
2023/03/14 12:35:43;;;;;;;6.45;1.42;;;14.60;99.90;;;;;;5054648;28;20085;-86
2023/03/14 12:38:21;;;;;;;9.88;1.70;;;14.80;99.90;;;;;;5062345;28;20028;-86
2023/03/14 12:41:05;;;;;;;7.57;1.60;;;15.30;99.90;;;;;;5063075;28;20035;-87
2023/03/14 12:43:33;;;;;;;8.65;1.92;;;15.80;99.90;;;;;;5061346;28;20024;-87
2023/03/14 12:46:17;;;;;;;5.57;1.42;;;15.90;99.90;;;;;;5064445;28;20116;-86
2023/03/14 12:48:45;;;;;;;7.28;1.63;;;16.10;99.90;;;;;;5067677;28;20086;-85
2023/03/14 12:51:32;;;;;;;6.25;1.52;;;16.10;99.90;;;;;;5065367;28;20143;-84
2023/03/14 12:54:00;;;;;;;7.57;1.48;;;15.70;99.00;;;;;;5065791;28;20028;-86
2023/03/14 12:57:03;;;;;;;7.72;2.08;;;15.50;99.90;;;;;;5065859;28;20037;-86
2023/03/14 12:59:45;;;;;;;8.45;1.48;;;15.90;99.90;;;;;;5064438;28;20066;-85
2023/03/14 13:02:19;;;;;;;9.10;1.65;;;16.20;99.90;;;;;;5059096;28;20032;-84
2023/03/14 13:04:52;;;;;;;7.45;1.55;;;16.40;97.90;;;;;;5063801;28;20081;-84